»·PEaware :: FS-341 T19-MMPG

FS-341 :: T19-MMPG

FLIGHT INFORMATION

Flight Status: Arrived
Operator: Unknown
More flights by this operator :: More flights under this callsign
Pilot: Ilya T. (18745)
Aircraft: CESSNA 172 SKYHAWK
(C172)
More flights by this aircraft type
Origin: T19 Duval-Freer
United States
Destination: MMPG Piedras Negras Intl
Mexico
More flights between these airports :: More routes between these airports
Route:
File this flight plan on PilotEdge
Remarks:
Altitude:
(Current/Filed)
9,500ft
Speed:
(Current/Filed)
120kts
Departed: 11-Apr-18 11:01 PM
Arrived: 11-Apr-18 11:50 PM
Distance/Time
Traveled:
111nm/0:49
Distance/Time
To Go:
Arrived

Flight Plot

Page will automatically refresh every two minutes.

Flight plan parsing failed; only flown route is shown


Map Options




Map Legend


Flown Route
Filed Route
Departure Airport
Arrival Airport
Navaid (VOR, NDB)
Fix

Horizontal Profiles

Position Reports

Time Latitude Longitude Heading Altitude Ground
Speed
11-Apr-18 22:43 27.883472 -98.600139 0 560ft 0kts
11-Apr-18 22:44 27.883472 -98.600139 0 560ft 0kts
11-Apr-18 22:45 27.883472 -98.600139 0 560ft 0kts
11-Apr-18 22:46 27.883472 -98.600139 0 560ft 0kts
11-Apr-18 22:47 27.883472 -98.600139 0 560ft 0kts
11-Apr-18 22:48 27.883472 -98.600139 0 560ft 0kts
11-Apr-18 22:49 27.883414 -98.600238 240 560ft 2kts
11-Apr-18 22:50 27.883376 -98.600317 262 560ft 0kts
11-Apr-18 22:51 27.883376 -98.600317 262 560ft 0kts
11-Apr-18 22:52 27.883376 -98.600317 262 560ft 0kts
11-Apr-18 22:53 27.883376 -98.600317 262 560ft 0kts
11-Apr-18 22:54 27.883376 -98.600317 262 560ft 0kts
11-Apr-18 22:55 27.883376 -98.600317 262 560ft 0kts
11-Apr-18 22:56 27.883376 -98.600317 262 560ft 0kts
11-Apr-18 22:57 27.885172 -98.602228 324 548ft 18kts
11-Apr-18 22:58 27.886582 -98.603387 350 540ft 2kts
11-Apr-18 22:59 27.886756 -98.602901 138 542ft 6kts
11-Apr-18 23:00 27.875961 -98.594993 153 972ft 61kts
11-Apr-18 23:01 27.886972 -98.597731 284 1486ft 95kts
11-Apr-18 23:02 27.892804 -98.622829 276 2153ft 92kts
11-Apr-18 23:03 27.902291 -98.648406 285 2846ft 83kts
11-Apr-18 23:04 27.911931 -98.673301 287 3390ft 91kts
11-Apr-18 23:05 27.922610 -98.700356 287 3901ft 95kts
11-Apr-18 23:06 27.933316 -98.727574 287 4407ft 94kts
11-Apr-18 23:07 27.943851 -98.754430 286 4915ft 92kts
11-Apr-18 23:08 27.954167 -98.780756 286 5423ft 90kts
11-Apr-18 23:09 27.964071 -98.806016 285 5919ft 75kts
11-Apr-18 23:10 27.973149 -98.829292 287 6224ft 96kts
11-Apr-18 23:11 27.983098 -98.854358 285 6776ft 77kts
11-Apr-18 23:12 27.992071 -98.877589 287 7065ft 94kts
11-Apr-18 23:13 28.003348 -98.906089 288 7304ft 97kts
11-Apr-18 23:14 28.014010 -98.933371 288 7609ft 93kts
11-Apr-18 23:15 28.024319 -98.959823 288 7914ft 91kts
11-Apr-18 23:16 28.034549 -98.986080 288 8219ft 90kts
11-Apr-18 23:17 28.044641 -99.011993 289 8522ft 90kts
11-Apr-18 23:18 28.059709 -99.050718 290 8976ft 88kts
11-Apr-18 23:19 28.078220 -99.098547 291 9465ft 98kts
11-Apr-18 23:20 28.101338 -99.158835 292 9465ft 109kts
11-Apr-18 23:21 28.125267 -99.220730 292 9460ft 109kts
11-Apr-18 23:22 28.149595 -99.283678 292 9454ft 109kts
11-Apr-18 23:23 28.173869 -99.346585 292 9446ft 109kts
11-Apr-18 23:24 28.198199 -99.409742 292 9436ft 109kts
11-Apr-18 23:25 28.222537 -99.473022 292 9426ft 109kts
11-Apr-18 23:26 28.246940 -99.536579 292 9414ft 110kts
11-Apr-18 23:27 28.271362 -99.600292 292 9402ft 110kts
11-Apr-18 23:28 28.295587 -99.663598 292 9393ft 110kts
11-Apr-18 23:29 28.319974 -99.727440 292 9399ft 110kts
11-Apr-18 23:30 28.344367 -99.791406 292 9404ft 110kts
11-Apr-18 23:31 28.368763 -99.855486 292 9408ft 110kts
11-Apr-18 23:32 28.393074 -99.919457 292 9410ft 110kts
11-Apr-18 23:33 28.417334 -99.983398 292 9410ft 110kts
11-Apr-18 23:34 28.442242 -100.047321 293 9410ft 110kts
11-Apr-18 23:35 28.466731 -100.111131 292 9408ft 110kts
11-Apr-18 23:36 28.493071 -100.180506 295 8380ft 128kts
11-Apr-18 23:37 28.516848 -100.243523 295 6855ft 129kts
11-Apr-18 23:38 28.531570 -100.280682 297 5956ft 129kts
11-Apr-18 23:39 28.545894 -100.317749 295 5239ft 126kts
11-Apr-18 23:40 28.559991 -100.355142 294 4381ft 130kts
11-Apr-18 23:41 28.573203 -100.390274 294 3380ft 114kts
11-Apr-18 23:42 28.585943 -100.424227 294 2612ft 116kts
11-Apr-18 23:43 28.598569 -100.457888 293 1914ft 116kts
11-Apr-18 23:44 28.610362 -100.490358 290 1327ft 96kts
11-Apr-18 23:45 28.622136 -100.514922 317 1436ft 90kts
11-Apr-18 23:46 28.638928 -100.533916 316 1335ft 74kts
11-Apr-18 23:47 28.645035 -100.552169 216 1277ft 59kts
11-Apr-18 23:48 28.632399 -100.542838 122 938ft 57kts
11-Apr-18 23:49 28.626932 -100.534600 175 895ft 7kts
11-Apr-18 23:50 28.623988 -100.530016 127 896ft 24kts
11-Apr-18 23:51 28.622714 -100.528526 211 896ft 0kts
11-Apr-18 23:52 28.622714 -100.528526 211 896ft 0kts
11-Apr-18 23:53 28.622714 -100.528526 211 896ft 0kts
11-Apr-18 23:54 28.622714 -100.528526 211 896ft 0kts
11-Apr-18 23:55 28.622714 -100.528526 211 896ft 0kts
11-Apr-18 23:56 28.622714 -100.528526 211 896ft 0kts
11-Apr-18 23:57 28.622714 -100.528526 211 896ft 0kts
11-Apr-18 23:58 28.622714 -100.528526 211 896ft 0kts
11-Apr-18 23:59 28.622714 -100.528526 211 896ft 0kts
12-Apr-18 00:00 28.622714 -100.528526 211 896ft 0kts
12-Apr-18 00:01 28.622714 -100.528526 211 896ft 0kts
12-Apr-18 00:02 28.622714 -100.528526 211 896ft 0kts
12-Apr-18 00:03 28.622714 -100.528526 211 896ft 0kts

Navigation Log

Ident Type
Flight plan parsing failed, navigation log unavailable